createdAt,value
2023-05-05T00:02:21.191Z,99712.31
2023-05-05T00:07:23.118Z,99703.44
2023-05-05T00:12:25.273Z,99703.81
2023-05-05T00:17:27.419Z,99709.16
2023-05-05T00:22:29.541Z,99705.56
2023-05-05T00:27:31.666Z,99713.00
2023-05-05T00:32:33.604Z,99718.06
2023-05-05T00:37:36.140Z,99733.38
2023-05-05T00:42:43.034Z,99725.94
2023-05-05T00:47:51.503Z,99718.63
2023-05-05T00:52:56.936Z,99722.94
2023-05-05T00:57:59.956Z,99719.31
2023-05-05T01:03:02.313Z,99714.00
2023-05-05T01:08:24.786Z,99718.47
2023-05-05T01:13:42.943Z,99709.72
2023-05-05T01:19:07.998Z,99709.69
2023-05-05T01:24:50.281Z,99710.38
2023-05-05T01:30:07.448Z,99698.78
2023-05-05T01:35:18.295Z,99698.41
2023-05-05T01:40:23.157Z,99690.81
2023-05-05T01:45:28.722Z,99683.53
2023-05-05T01:50:32.048Z,99699.06
2023-05-05T01:55:35.725Z,99695.59
2023-05-05T02:00:38.812Z,99702.03
2023-05-05T02:05:43.262Z,99710.16
2023-05-05T02:10:47.818Z,99703.88
2023-05-05T02:15:51.092Z,99686.34
2023-05-05T02:20:53.430Z,99689.00
2023-05-05T02:25:59.944Z,99691.13
2023-05-05T02:31:04.916Z,99698.75
2023-05-05T02:36:16.632Z,99693.97
2023-05-05T02:41:28.713Z,99706.22
2023-05-05T02:46:31.916Z,99702.75
2023-05-05T02:51:34.074Z,99699.94
2023-05-05T02:56:45.395Z,99703.59
2023-05-05T03:01:51.223Z,99709.38
2023-05-05T03:06:59.271Z,99713.19
2023-05-05T03:12:07.792Z,99699.44
2023-05-05T03:17:25.020Z,99726.50
2023-05-05T03:22:27.850Z,99715.84
2023-05-05T03:27:31.021Z,99728.50
2023-05-05T03:32:33.499Z,99738.56
2023-05-05T03:37:35.669Z,99736.34
2023-05-05T03:42:37.908Z,99742.09
2023-05-05T03:47:40.239Z,99732.47
2023-05-05T03:52:43.167Z,99732.56
2023-05-05T03:57:46.123Z,99742.88
2023-05-05T04:02:48.118Z,99745.69
2023-05-05T04:07:53.289Z,99751.72
2023-05-05T04:12:55.878Z,99768.72
2023-05-05T04:17:58.238Z,99750.06
2023-05-05T04:23:00.880Z,99759.41
2023-05-05T04:28:02.988Z,99761.44
2023-05-05T04:33:06.656Z,99767.38
2023-05-05T04:38:09.139Z,99773.16
2023-05-05T04:43:11.103Z,99769.22
2023-05-05T04:48:13.585Z,99783.63
2023-05-05T04:53:15.939Z,99793.22
2023-05-05T04:58:18.670Z,99794.72
2023-05-05T05:03:22.351Z,99792.47
2023-05-05T05:08:25.306Z,99797.50
2023-05-05T05:13:27.453Z,99798.28
2023-05-05T05:18:29.720Z,99799.63
2023-05-05T05:23:31.717Z,99797.34
2023-05-05T05:28:34.019Z,99785.66
2023-05-05T05:33:35.881Z,99792.97
2023-05-05T05:38:38.053Z,99789.47
2023-05-05T05:43:41.698Z,99803.13
2023-05-05T05:48:44.350Z,99811.28
2023-05-05T05:53:46.488Z,99794.53
2023-05-05T05:58:49.258Z,99797.88
2023-05-05T06:03:52.023Z,99793.00
2023-05-05T06:08:54.854Z,99787.63
2023-05-05T06:13:57.089Z,99792.06
2023-05-05T06:18:59.258Z,99804.16
2023-05-05T06:24:01.430Z,99814.00
2023-05-05T06:29:03.885Z,99801.47
2023-05-05T06:34:06.014Z,99800.91
2023-05-05T06:39:08.090Z,99809.78
2023-05-05T06:44:11.433Z,99810.47
2023-05-05T06:49:13.549Z,99802.66
2023-05-05T06:54:15.606Z,99815.44
2023-05-05T06:59:17.778Z,99823.28
2023-05-05T07:04:19.905Z,99827.38
2023-05-05T07:09:21.728Z,99831.50
2023-05-05T07:14:24.537Z,99832.25
2023-05-05T07:19:26.697Z,99840.53
2023-05-05T07:24:28.741Z,99842.06
2023-05-05T07:29:30.997Z,99843.00
2023-05-05T07:34:34.586Z,99858.84
2023-05-05T07:39:36.729Z,99865.69
2023-05-05T07:44:38.587Z,99870.41
2023-05-05T07:49:40.713Z,99878.75
2023-05-05T07:54:42.663Z,99874.03
2023-05-05T07:59:44.938Z,99872.97
2023-05-05T08:04:46.865Z,99869.97
2023-05-05T08:09:48.947Z,99884.38
2023-05-05T08:14:50.812Z,99887.63
2023-05-05T08:19:53.324Z,99896.50
2023-05-05T08:24:55.507Z,99906.84
2023-05-05T08:29:58.410Z,99918.06
2023-05-05T08:35:04.826Z,99921.56
2023-05-05T08:40:08.068Z,99925.59
2023-05-05T08:45:11.234Z,99928.63
2023-05-05T08:50:14.403Z,99927.44
2023-05-05T08:55:25.780Z,99922.22
2023-05-05T09:00:28.234Z,99924.09
2023-05-05T09:05:30.282Z,99924.78
2023-05-05T09:10:32.688Z,99917.91
2023-05-05T09:15:34.926Z,99911.13
2023-05-05T09:20:38.576Z,99923.09
2023-05-05T09:25:44.661Z,99913.84
2023-05-05T09:30:47.716Z,99926.75
2023-05-05T09:35:56.040Z,99920.31
2023-05-05T09:40:58.054Z,99922.16
2023-05-05T09:46:08.544Z,99929.53
2023-05-05T09:51:10.973Z,99936.22
2023-05-05T09:56:13.162Z,99928.94
2023-05-05T10:01:24.592Z,99929.91
2023-05-05T10:06:47.576Z,99935.81
2023-05-05T10:11:49.870Z,99946.75
2023-05-05T10:16:53.598Z,99943.75
2023-05-05T10:22:02.837Z,99953.81
2023-05-05T10:27:12.730Z,99955.44
2023-05-05T10:37:50.754Z,99942.00
2023-05-05T10:42:54.343Z,99952.31
2023-05-05T10:47:59.800Z,99958.56
2023-05-05T10:53:23.287Z,99951.50
2023-05-05T10:58:58.398Z,99955.81
2023-05-05T11:04:21.329Z,99951.03
2023-05-05T11:09:30.027Z,99951.56
2023-05-05T11:14:32.125Z,99951.78
2023-05-05T11:19:43.044Z,99949.56
2023-05-05T11:24:45.081Z,99948.56
2023-05-05T11:30:06.021Z,99949.53
2023-05-05T11:35:08.179Z,99953.06
2023-05-05T11:40:13.962Z,99935.38
2023-05-05T11:45:24.610Z,99951.13
2023-05-05T11:50:27.523Z,99936.44
2023-05-05T11:55:30.708Z,99942.63
2023-05-05T12:00:34.032Z,99929.09
2023-05-05T12:05:36.986Z,99931.59
2023-05-05T12:10:39.336Z,99928.47
2023-05-05T12:15:41.362Z,99928.56
2023-05-05T12:20:44.496Z,99924.78
2023-05-05T12:25:46.554Z,99927.19
2023-05-05T12:30:59.075Z,99940.44
2023-05-05T12:36:01.601Z,99924.38
2023-05-05T12:41:03.754Z,99922.44
2023-05-05T12:46:06.213Z,99925.88
2023-05-05T12:51:18.631Z,99914.66
2023-05-05T12:56:35.648Z,99909.81
2023-05-05T13:01:51.800Z,99917.56
2023-05-05T13:07:16.935Z,99908.22
2023-05-05T13:12:19.295Z,99910.03
2023-05-05T13:17:21.384Z,99877.50
2023-05-05T13:22:23.254Z,99904.94
2023-05-05T13:27:25.243Z,99901.16
2023-05-05T13:32:27.163Z,99906.34
2023-05-05T13:37:29.150Z,99909.97
2023-05-05T13:42:31.289Z,99902.00
2023-05-05T13:47:33.483Z,99910.19
2023-05-05T13:52:35.496Z,99903.97
2023-05-05T13:57:37.470Z,99907.25
2023-05-05T14:02:39.515Z,99894.94
2023-05-05T14:07:41.376Z,99906.28
2023-05-05T14:12:43.686Z,99905.28
2023-05-05T14:17:45.706Z,99901.47
2023-05-05T14:22:49.320Z,99901.84
2023-05-05T14:27:51.589Z,99900.03
2023-05-05T14:32:53.736Z,99909.41
2023-05-05T14:37:55.651Z,99905.66
2023-05-05T14:42:57.927Z,99904.16
2023-05-05T14:48:00.249Z,99894.31
2023-05-05T14:53:03.366Z,99898.22
2023-05-05T14:58:05.561Z,99899.72
2023-05-05T15:03:07.783Z,99893.41
2023-05-05T15:08:10.090Z,99891.72
2023-05-05T15:13:12.103Z,99888.94
2023-05-05T15:18:14.197Z,99893.16
2023-05-05T15:23:16.216Z,99859.88
2023-05-05T15:28:18.832Z,99885.66
2023-05-05T15:33:20.935Z,99882.44
2023-05-05T15:38:22.882Z,99891.16
2023-05-05T15:43:24.961Z,99893.69
2023-05-05T15:48:26.892Z,99889.31
2023-05-05T15:53:28.896Z,99892.84
2023-05-05T15:58:30.815Z,99888.25
2023-05-05T16:03:32.824Z,99895.66
2023-05-05T16:08:35.190Z,99899.84
2023-05-05T16:13:39.192Z,99906.88
2023-05-05T16:18:41.400Z,99910.09
2023-05-05T16:23:43.606Z,99907.41
2023-05-05T16:28:45.702Z,99906.81
2023-05-05T16:33:47.577Z,99909.06
2023-05-05T16:38:49.898Z,99908.72
2023-05-05T16:43:52.515Z,99903.59
2023-05-05T16:48:54.680Z,99896.03
2023-05-05T16:53:56.611Z,99910.22
2023-05-05T16:58:58.579Z,99911.66
2023-05-05T17:04:02.529Z,99915.03
2023-05-05T17:09:06.289Z,99914.69
2023-05-05T17:14:08.348Z,99919.91
2023-05-05T17:19:10.440Z,99920.69
2023-05-05T17:24:12.632Z,99919.50
2023-05-05T17:29:19.924Z,99924.41
2023-05-05T17:34:22.184Z,99922.78
2023-05-05T17:39:24.347Z,99922.09
2023-05-05T17:44:26.439Z,99917.69
2023-05-05T17:49:28.324Z,99909.88
2023-05-05T17:54:30.630Z,99903.66
2023-05-05T17:59:32.772Z,99914.38
2023-05-05T18:04:38.150Z,99916.16
2023-05-05T18:09:41.143Z,99913.13
2023-05-05T18:14:43.201Z,99920.84
2023-05-05T18:19:47.294Z,99908.22
2023-05-05T18:24:51.174Z,99921.56
2023-05-05T18:29:53.454Z,99904.50
2023-05-05T18:34:55.634Z,99913.38
2023-05-05T18:39:57.833Z,99920.13
2023-05-05T18:44:59.893Z,99916.53
2023-05-05T18:50:02.027Z,99923.59
2023-05-05T18:55:05.770Z,99930.78
2023-05-05T19:00:09.371Z,99919.41
2023-05-05T19:05:11.929Z,99930.22
2023-05-05T19:10:14.292Z,99925.09
2023-05-05T19:15:16.389Z,99925.03
2023-05-05T19:20:18.526Z,99931.66
2023-05-05T19:25:20.651Z,99940.53
2023-05-05T19:30:22.832Z,99941.22
2023-05-05T19:35:24.883Z,99934.88
2023-05-05T19:40:27.035Z,99926.28
2023-05-05T19:45:29.220Z,99928.34
2023-05-05T19:50:31.745Z,99929.72
2023-05-05T19:55:33.922Z,99924.28
2023-05-05T20:00:36.142Z,99927.72
2023-05-05T20:05:38.282Z,99919.78
2023-05-05T20:10:40.456Z,99924.28
2023-05-05T20:15:42.553Z,99921.59
2023-05-05T20:20:44.688Z,99920.44
2023-05-05T20:25:46.784Z,99920.72
2023-05-05T20:30:48.938Z,99919.44
2023-05-05T20:35:51.068Z,99923.53
2023-05-05T20:40:53.204Z,99919.63
2023-05-05T20:45:55.338Z,99922.00
2023-05-05T20:50:58.921Z,99924.75
2023-05-05T20:56:01.042Z,99932.06
2023-05-05T21:01:03.264Z,99927.19
2023-05-05T21:06:05.634Z,99930.09
2023-05-05T21:11:10.633Z,99937.00
2023-05-05T21:16:12.717Z,99940.66
2023-05-05T21:21:14.763Z,99936.50
2023-05-05T21:26:16.905Z,99928.84
2023-05-05T21:31:22.205Z,99925.88
2023-05-05T21:36:24.900Z,99921.00
2023-05-05T21:41:27.133Z,99920.69
2023-05-05T21:46:29.193Z,99925.50
2023-05-05T21:51:31.416Z,99917.28
2023-05-05T21:56:34.135Z,99916.97
2023-05-05T22:01:36.969Z,99916.59
2023-05-05T22:06:39.051Z,99924.00
2023-05-05T22:11:41.089Z,99917.47
2023-05-05T22:16:43.351Z,99922.25
2023-05-05T22:21:45.413Z,99914.41
2023-05-05T22:26:47.457Z,99922.28
2023-05-05T22:31:49.581Z,99918.97
2023-05-05T22:36:51.730Z,99931.13
2023-05-05T22:41:53.752Z,99920.28
2023-05-05T22:46:55.969Z,99926.38
2023-05-05T22:51:58.564Z,99932.94
2023-05-05T22:57:00.619Z,99926.13
2023-05-05T23:02:02.804Z,99933.53
2023-05-05T23:07:04.894Z,99928.06
2023-05-05T23:12:07.095Z,99931.38
2023-05-05T23:17:09.462Z,99933.53
2023-05-05T23:22:11.538Z,99925.16
2023-05-05T23:27:13.856Z,99944.22
2023-05-05T23:32:15.918Z,99914.41
2023-05-05T23:37:18.077Z,99951.47
2023-05-05T23:42:20.212Z,99948.47
2023-05-05T23:47:22.302Z,99955.72
2023-05-05T23:52:24.419Z,99950.34
2023-05-05T23:57:26.866Z,99960.44
